createdAt,value
2022-08-05T00:00:50.250Z,98545.69
2022-08-05T00:06:38.905Z,98533.66
2022-08-05T00:09:13.034Z,98534.56
2022-08-05T00:11:48.335Z,98537.94
2022-08-05T00:14:17.194Z,98539.25
2022-08-05T00:16:53.655Z,98535.09
2022-08-05T00:19:22.291Z,98550.09
2022-08-05T00:21:49.410Z,98550.56
2022-08-05T00:24:16.246Z,98568.88
2022-08-05T00:26:52.093Z,98575.16
2022-08-05T00:29:18.939Z,98581.44
2022-08-05T00:32:10.185Z,98576.47
2022-08-05T00:34:54.152Z,98582.69
2022-08-05T00:37:22.459Z,98567.13
2022-08-05T00:39:58.102Z,98561.94
2022-08-05T00:42:36.841Z,98562.81
2022-08-05T00:45:05.455Z,98559.94
2022-08-05T00:47:57.002Z,98556.66
2022-08-05T00:50:21.866Z,98556.28
2022-08-05T00:52:52.082Z,98554.84
2022-08-05T00:55:19.911Z,98547.19
2022-08-05T00:57:58.127Z,98550.28
2022-08-05T01:00:26.689Z,98553.84
2022-08-05T01:02:53.219Z,98548.06
2022-08-05T01:05:19.736Z,98550.13
2022-08-05T01:08:29.824Z,98555.16
2022-08-05T01:10:52.926Z,98557.22
2022-08-05T01:13:58.982Z,98562.84
2022-08-05T01:16:45.008Z,98559.75
2022-08-05T01:19:46.129Z,98569.72
2022-08-05T01:22:18.777Z,98568.88
2022-08-05T01:24:50.252Z,98573.06
2022-08-05T01:27:35.406Z,98570.56
2022-08-05T01:30:18.970Z,98568.03
2022-08-05T01:32:47.213Z,98564.53
2022-08-05T01:35:51.596Z,98568.91
2022-08-05T01:38:04.454Z,98561.44
2022-08-05T01:40:32.154Z,98579.94
2022-08-05T01:43:00.814Z,98590.53
2022-08-05T01:45:34.921Z,98587.22
2022-08-05T01:48:10.370Z,98582.66
2022-08-05T01:50:38.693Z,98588.91
2022-08-05T01:53:09.818Z,98600.09
2022-08-05T01:55:39.406Z,98591.81
2022-08-05T01:58:09.563Z,98582.88
2022-08-05T02:00:43.831Z,98589.50
2022-08-05T02:03:24.389Z,98578.13
2022-08-05T02:05:59.719Z,98587.44
2022-08-05T02:08:31.188Z,98578.97
2022-08-05T02:11:02.363Z,98578.53
2022-08-05T02:13:36.441Z,98582.50
2022-08-05T02:16:19.853Z,98578.53
2022-08-05T02:18:52.659Z,98598.88
2022-08-05T02:21:21.973Z,98606.34
2022-08-05T02:23:52.224Z,98615.47
2022-08-05T02:26:33.497Z,98646.22
2022-08-05T02:29:01.145Z,98705.06
2022-08-05T02:31:35.050Z,98735.63
2022-08-05T02:34:03.785Z,98746.25
2022-08-05T02:36:34.292Z,98741.47
2022-08-05T02:39:03.182Z,98762.50
2022-08-05T02:41:36.450Z,98790.72
2022-08-05T02:44:19.530Z,98798.41
2022-08-05T02:46:58.780Z,98799.88
2022-08-05T02:49:35.768Z,98810.47
2022-08-05T02:52:04.849Z,98810.88
2022-08-05T02:54:35.740Z,98810.66
2022-08-05T02:57:03.845Z,98813.53
2022-08-05T02:59:47.828Z,98804.41
2022-08-05T03:02:22.781Z,98792.16
2022-08-05T03:04:53.270Z,98782.22
2022-08-05T03:07:40.430Z,98778.69
2022-08-05T03:10:07.164Z,98797.34
2022-08-05T03:12:51.918Z,98812.72
2022-08-05T03:15:20.112Z,98817.66
2022-08-05T03:17:46.640Z,98812.69
2022-08-05T03:20:13.463Z,98815.16
2022-08-05T03:22:46.861Z,98810.19
2022-08-05T03:25:33.820Z,98807.50
2022-08-05T03:28:05.452Z,98812.88
2022-08-05T03:30:33.968Z,98772.00
2022-08-05T03:33:05.784Z,98734.66
2022-08-05T03:35:40.519Z,98762.88
2022-08-05T03:38:08.179Z,98765.78
2022-08-05T03:40:34.675Z,98742.31
2022-08-05T03:43:59.198Z,98680.25
2022-08-05T03:45:57.605Z,98624.00
2022-08-05T03:48:25.969Z,98614.25
2022-08-05T03:52:37.149Z,98593.09
2022-08-05T03:55:50.016Z,98576.88
2022-08-05T03:56:42.037Z,98580.59
2022-08-05T03:59:14.999Z,98562.75
2022-08-05T04:01:47.963Z,98560.03
2022-08-05T04:04:16.798Z,98557.78
2022-08-05T04:06:51.084Z,98553.81
2022-08-05T04:09:26.009Z,98548.22
2022-08-05T04:11:53.471Z,98549.00
2022-08-05T04:14:30.233Z,98557.94
2022-08-05T04:16:57.557Z,98559.41
2022-08-05T04:19:24.016Z,98575.59
2022-08-05T04:22:08.319Z,98591.97
2022-08-05T04:24:37.827Z,98592.00
2022-08-05T04:27:10.867Z,98586.38
2022-08-05T04:29:37.335Z,98565.22
2022-08-05T04:32:03.847Z,98573.13
2022-08-05T04:34:32.512Z,98580.16
2022-08-05T04:37:00.848Z,98614.59
2022-08-05T04:39:29.842Z,98639.25
2022-08-05T04:41:56.335Z,98669.72
2022-08-05T04:44:30.017Z,98706.22
2022-08-05T04:47:09.400Z,98723.97
2022-08-05T04:50:01.515Z,98742.00
2022-08-05T04:52:23.591Z,98772.03
2022-08-05T04:54:53.995Z,98767.28
2022-08-05T04:57:28.611Z,98784.47
2022-08-05T04:59:55.835Z,98784.47
2022-08-05T05:02:37.433Z,98791.94
2022-08-05T05:05:26.270Z,98759.00
2022-08-05T05:08:01.720Z,98755.31
2022-08-05T05:10:29.591Z,98760.50
2022-08-05T05:12:56.381Z,98748.44
2022-08-05T05:15:57.545Z,98749.06
2022-08-05T05:18:31.460Z,98748.03
2022-08-05T05:21:01.123Z,98782.44
2022-08-05T05:23:39.327Z,98790.91
2022-08-05T05:26:14.116Z,98801.94
2022-08-05T05:28:44.754Z,98793.25
2022-08-05T05:31:11.619Z,98784.19
2022-08-05T05:33:58.911Z,98789.78
2022-08-05T05:36:24.477Z,98795.19
2022-08-05T05:38:55.404Z,98803.28
2022-08-05T05:41:21.920Z,98815.03
2022-08-05T05:43:58.354Z,98832.19
2022-08-05T05:46:27.016Z,98817.66
2022-08-05T05:48:53.532Z,98828.00
2022-08-05T05:51:20.672Z,98831.31
2022-08-05T05:53:58.367Z,98836.84
2022-08-05T05:56:32.618Z,98817.78
2022-08-05T05:59:03.252Z,98815.47
2022-08-05T06:01:36.882Z,98809.28
2022-08-05T06:04:05.065Z,98785.09
2022-08-05T06:06:34.702Z,98766.25
2022-08-05T06:09:01.882Z,98755.88
2022-08-05T06:11:30.942Z,98756.09
2022-08-05T06:13:57.468Z,98755.09
2022-08-05T06:16:30.385Z,98744.75
2022-08-05T06:18:59.968Z,98753.06
2022-08-05T06:21:36.091Z,98756.19
2022-08-05T06:24:11.524Z,98735.25
2022-08-05T06:26:38.704Z,98746.03
2022-08-05T06:29:06.427Z,98725.09
2022-08-05T06:31:51.482Z,98717.00
2022-08-05T06:34:19.922Z,98727.38
2022-08-05T06:36:58.150Z,98753.88
2022-08-05T06:39:27.856Z,98769.97
2022-08-05T06:41:56.068Z,98783.47
2022-08-05T06:44:25.196Z,98773.00
2022-08-05T06:46:52.579Z,98779.50
2022-08-05T06:49:21.123Z,98784.75
2022-08-05T06:52:07.520Z,98777.13
2022-08-05T06:54:53.908Z,98765.91
2022-08-05T06:57:57.131Z,98781.63
2022-08-05T07:00:07.279Z,98788.72
2022-08-05T07:02:46.246Z,98791.25
2022-08-05T07:05:18.517Z,98778.78
2022-08-05T07:07:48.906Z,98782.72
2022-08-05T07:10:16.373Z,98782.13
2022-08-05T07:13:02.136Z,98779.69
2022-08-05T07:16:00.992Z,98786.56
2022-08-05T07:18:31.417Z,98794.69
2022-08-05T07:20:58.189Z,98804.47
2022-08-05T07:23:31.308Z,98803.50
2022-08-05T07:25:57.779Z,98812.63
2022-08-05T07:28:25.237Z,98798.16
2022-08-05T07:30:54.715Z,98765.41
2022-08-05T07:33:35.035Z,98764.59
2022-08-05T07:36:20.732Z,98753.00
2022-08-05T07:38:48.943Z,98728.00
2022-08-05T07:42:13.795Z,98731.28
2022-08-05T07:44:14.344Z,98728.34
2022-08-05T07:46:49.257Z,98720.34
2022-08-05T07:49:17.985Z,98724.88
2022-08-05T07:51:53.138Z,98727.31
2022-08-05T07:54:26.621Z,98739.66
2022-08-05T07:57:13.298Z,98745.84
2022-08-05T07:59:43.291Z,98758.25
2022-08-05T08:02:15.715Z,98745.47
2022-08-05T08:04:44.842Z,98738.63
2022-08-05T08:07:11.787Z,98724.72
2022-08-05T08:09:38.491Z,98731.28
2022-08-05T08:12:14.341Z,98738.66
2022-08-05T08:14:47.103Z,98731.34
2022-08-05T08:17:21.266Z,98738.38
2022-08-05T08:20:22.756Z,98727.94
2022-08-05T08:22:35.192Z,98735.50
2022-08-05T08:25:03.190Z,98736.69
2022-08-05T08:27:35.818Z,98751.59
2022-08-05T08:30:29.382Z,98753.13
2022-08-05T08:33:02.698Z,98759.09
2022-08-05T08:35:41.403Z,98777.06
2022-08-05T08:38:35.858Z,98782.97
2022-08-05T08:41:10.081Z,98778.44
2022-08-05T08:45:18.223Z,98775.41
2022-08-05T08:46:31.750Z,98782.22
2022-08-05T08:50:03.952Z,98796.78
2022-08-05T08:52:02.821Z,98800.78
2022-08-05T08:54:32.435Z,98793.56
2022-08-05T08:56:59.290Z,98797.69
2022-08-05T08:59:27.761Z,98798.38
2022-08-05T09:02:01.286Z,98789.66
2022-08-05T09:04:30.086Z,98785.44
2022-08-05T09:06:57.488Z,98768.69
2022-08-05T09:09:24.891Z,98778.03
2022-08-05T09:11:57.815Z,98769.00
2022-08-05T09:14:58.277Z,98771.53
2022-08-05T09:17:42.303Z,98787.16
2022-08-05T09:20:05.712Z,98796.28
2022-08-05T09:23:09.515Z,98793.72
2022-08-05T09:25:59.803Z,98792.22
2022-08-05T09:28:32.500Z,98794.78
2022-08-05T09:31:43.687Z,98781.97
2022-08-05T09:34:06.534Z,98776.84
2022-08-05T09:36:59.687Z,98775.88
2022-08-05T09:39:41.131Z,98780.16
2022-08-05T09:42:17.260Z,98784.72
2022-08-05T09:44:49.406Z,98791.94
2022-08-05T09:47:20.498Z,98794.09
2022-08-05T09:49:54.498Z,98788.56
2022-08-05T09:52:28.318Z,98784.75
2022-08-05T09:54:55.948Z,98789.22
2022-08-05T09:57:48.886Z,98784.13
2022-08-05T10:00:24.730Z,98777.81
2022-08-05T10:02:54.657Z,98773.41
2022-08-05T10:05:23.688Z,98769.34
2022-08-05T10:08:36.831Z,98772.22
2022-08-05T10:10:54.347Z,98743.06
2022-08-05T10:13:31.548Z,98752.22
2022-08-05T10:16:29.955Z,98757.91
2022-08-05T10:18:56.590Z,98762.50
2022-08-05T10:21:23.761Z,98771.00
2022-08-05T10:23:58.974Z,98778.50
2022-08-05T10:26:32.551Z,98777.31
2022-08-05T10:29:00.779Z,98782.34
2022-08-05T10:33:01.487Z,98779.41
2022-08-05T10:34:13.806Z,98776.09
2022-08-05T10:36:41.437Z,98784.41
2022-08-05T10:39:24.274Z,98780.78
2022-08-05T10:42:01.455Z,98785.50
2022-08-05T10:44:29.500Z,98785.59
2022-08-05T10:46:56.803Z,98781.78
2022-08-05T10:49:27.052Z,98766.88
2022-08-05T10:52:00.732Z,98765.41
2022-08-05T10:54:56.845Z,98753.59
2022-08-05T10:57:30.936Z,98767.88
2022-08-05T11:00:19.213Z,98774.75
2022-08-05T11:03:23.573Z,98784.59
2022-08-05T11:06:14.697Z,98777.06
2022-08-05T11:09:01.492Z,98768.31
2022-08-05T11:11:44.310Z,98777.97
2022-08-05T11:14:57.872Z,98774.22
2022-08-05T11:17:56.828Z,98780.78
2022-08-05T11:20:32.930Z,98776.56
2022-08-05T11:23:08.839Z,98775.25
2022-08-05T11:26:05.418Z,98776.91
2022-08-05T11:28:25.135Z,98782.59
2022-08-05T11:30:56.213Z,98794.28
2022-08-05T11:33:44.075Z,98794.94
2022-08-05T11:36:14.740Z,98798.53
2022-08-05T11:38:51.074Z,98809.47
2022-08-05T11:41:58.154Z,98813.97
2022-08-05T11:44:40.623Z,98802.00
2022-08-05T11:47:12.054Z,98802.34
2022-08-05T11:49:43.272Z,98802.00
2022-08-05T11:52:23.376Z,98794.50
2022-08-05T11:54:56.563Z,98807.75
2022-08-05T11:57:28.243Z,98804.81
2022-08-05T11:59:57.385Z,98806.41
2022-08-05T12:02:30.367Z,98799.84
2022-08-05T12:04:59.968Z,98789.09
2022-08-05T12:08:03.413Z,98793.06
2022-08-05T12:10:17.879Z,98799.06
2022-08-05T12:12:46.644Z,98806.19
2022-08-05T12:15:37.778Z,98816.34
2022-08-05T12:18:10.525Z,98820.03
2022-08-05T12:20:39.054Z,98811.56
2022-08-05T12:23:09.716Z,98802.78
2022-08-05T12:25:56.895Z,98809.75
2022-08-05T12:28:33.355Z,98810.75
2022-08-05T12:31:02.282Z,98805.06
2022-08-05T12:33:36.403Z,98800.72
2022-08-05T12:36:07.984Z,98795.41
2022-08-05T12:38:40.006Z,98811.84
2022-08-05T12:41:13.101Z,98814.03
2022-08-05T12:43:53.967Z,98829.66
2022-08-05T12:46:28.766Z,98829.38
2022-08-05T12:49:14.493Z,98835.41
2022-08-05T12:52:12.789Z,98846.47
2022-08-05T12:54:32.193Z,98843.38
2022-08-05T12:57:03.808Z,98850.75
2022-08-05T13:00:08.982Z,98841.50
2022-08-05T13:02:21.969Z,98843.56
2022-08-05T13:04:54.987Z,98839.97
2022-08-05T13:07:56.033Z,98836.91
2022-08-05T13:10:13.556Z,98839.03
2022-08-05T13:12:50.694Z,98836.22
2022-08-05T13:15:41.076Z,98826.25
2022-08-05T13:18:19.741Z,98832.84
2022-08-05T13:20:47.095Z,98832.47
2022-08-05T13:23:13.632Z,98841.50
2022-08-05T13:25:58.866Z,98849.34
2022-08-05T13:28:26.730Z,98846.38
2022-08-05T13:30:53.615Z,98845.88
2022-08-05T13:34:22.288Z,98857.84
2022-08-05T13:36:09.315Z,98843.28
2022-08-05T13:38:41.932Z,98851.81
2022-08-05T13:41:09.677Z,98849.81
2022-08-05T13:43:45.858Z,98849.22
2022-08-05T13:46:50.960Z,98851.44
2022-08-05T13:49:11.890Z,98852.75
2022-08-05T13:51:41.041Z,98854.06
2022-08-05T13:54:13.241Z,98890.38
2022-08-05T13:56:44.923Z,98891.88
2022-08-05T13:59:19.608Z,98897.31
2022-08-05T14:01:57.784Z,98909.09
2022-08-05T14:04:49.769Z,98919.78
2022-08-05T14:07:55.718Z,98934.19
2022-08-05T14:10:13.604Z,98944.88
2022-08-05T14:12:48.771Z,98951.34
2022-08-05T14:16:08.432Z,98944.09
2022-08-05T14:18:02.430Z,98963.56
2022-08-05T14:20:30.796Z,98968.22
2022-08-05T14:22:57.995Z,98956.38
2022-08-05T14:25:28.205Z,98968.28
2022-08-05T14:27:56.528Z,98984.44
2022-08-05T14:30:26.540Z,98996.16
2022-08-05T14:32:54.335Z,98999.88
2022-08-05T14:35:23.333Z,99007.84
2022-08-05T14:38:04.201Z,99018.75
2022-08-05T14:40:30.893Z,99027.47
2022-08-05T14:42:57.340Z,99032.63
2022-08-05T14:45:24.734Z,99041.56
2022-08-05T14:48:03.857Z,99046.72
2022-08-05T14:50:32.500Z,99040.88
2022-08-05T14:53:00.250Z,99050.63
2022-08-05T14:55:28.762Z,99056.75
2022-08-05T14:58:11.838Z,99058.84
2022-08-05T15:00:39.596Z,99066.16
2022-08-05T15:03:25.435Z,99069.22
2022-08-05T15:06:07.550Z,99079.00
2022-08-05T15:08:59.314Z,99092.31
2022-08-05T15:11:24.795Z,99096.44
2022-08-05T15:14:11.323Z,99112.28
2022-08-05T15:16:47.117Z,99114.81
2022-08-05T15:19:23.183Z,99117.63
2022-08-05T15:21:50.224Z,99105.50
2022-08-05T15:24:16.714Z,99118.34
2022-08-05T15:26:43.198Z,99127.19
2022-08-05T15:29:10.375Z,99134.53
2022-08-05T15:31:36.900Z,99132.00
2022-08-05T15:34:19.452Z,99118.94
2022-08-05T15:36:49.818Z,99137.50
2022-08-05T15:41:00.281Z,99136.50
2022-08-05T15:42:02.803Z,99141.50
2022-08-05T15:44:49.098Z,99148.81
2022-08-05T15:47:16.459Z,99163.25
2022-08-05T15:49:55.200Z,99167.38
2022-08-05T15:52:51.930Z,99168.09
2022-08-05T15:55:15.972Z,99174.59
2022-08-05T15:57:43.227Z,99177.28
2022-08-05T16:00:12.253Z,99178.97
2022-08-05T16:02:43.464Z,99179.69
2022-08-05T16:05:11.322Z,99178.13
2022-08-05T16:07:37.864Z,99181.22
2022-08-05T16:10:04.868Z,99181.19
2022-08-05T16:12:36.163Z,99182.50
2022-08-05T16:15:04.230Z,99180.13
2022-08-05T16:17:31.397Z,99183.50
2022-08-05T16:20:05.608Z,99182.75
2022-08-05T16:22:38.252Z,99194.47
2022-08-05T16:25:08.058Z,99194.47
2022-08-05T16:28:01.085Z,99191.56
2022-08-05T16:30:26.163Z,99188.91
2022-08-05T16:32:52.995Z,99192.97
2022-08-05T16:35:19.416Z,99188.28
2022-08-05T16:38:15.171Z,99183.84
2022-08-05T16:40:41.220Z,99180.94
2022-08-05T16:43:07.714Z,99189.63
2022-08-05T16:46:05.267Z,99193.66
2022-08-05T16:48:25.627Z,99209.09
2022-08-05T16:50:53.268Z,99217.47
2022-08-05T16:53:22.933Z,99214.03
2022-08-05T16:55:59.098Z,99208.94
2022-08-05T16:58:26.033Z,99190.03
2022-08-05T17:00:52.794Z,99199.41
2022-08-05T17:03:20.117Z,99202.09
2022-08-05T17:05:51.721Z,99209.44
2022-08-05T17:08:36.733Z,99211.47
2022-08-05T17:11:08.932Z,99217.41
2022-08-05T17:13:41.604Z,99217.03
2022-08-05T17:16:29.893Z,99218.13
2022-08-05T17:18:55.317Z,99206.66
2022-08-05T17:21:23.777Z,99212.47
2022-08-05T17:24:05.606Z,99221.00
2022-08-05T17:26:35.190Z,99218.03
2022-08-05T17:29:07.490Z,99224.75
2022-08-05T17:31:56.548Z,99226.78
2022-08-05T17:34:30.093Z,99234.56
2022-08-05T17:36:59.382Z,99237.78
2022-08-05T17:39:34.193Z,99244.66
2022-08-05T17:42:20.337Z,99240.94
2022-08-05T17:44:50.545Z,99246.41
2022-08-05T17:47:23.601Z,99239.00
2022-08-05T17:49:59.696Z,99246.34
2022-08-05T17:52:30.226Z,99249.88
2022-08-05T17:54:56.741Z,99265.53
2022-08-05T17:57:23.217Z,99276.28
2022-08-05T18:00:03.069Z,99278.81
2022-08-05T18:02:30.306Z,99276.00
2022-08-05T18:04:57.737Z,99284.06
2022-08-05T18:07:25.352Z,99283.22
2022-08-05T18:10:10.488Z,99286.41
2022-08-05T18:12:37.450Z,99295.97
2022-08-05T18:15:04.755Z,99297.19
2022-08-05T18:17:58.684Z,99297.88
2022-08-05T18:20:19.373Z,99295.19
2022-08-05T18:22:57.365Z,99292.16
2022-08-05T18:25:25.422Z,99295.25
2022-08-05T18:28:01.526Z,99301.34
2022-08-05T18:30:31.089Z,99302.22
2022-08-05T18:33:00.275Z,99301.94
2022-08-05T18:35:49.570Z,99305.81
2022-08-05T18:38:16.268Z,99300.31
2022-08-05T18:41:57.225Z,99299.50
2022-08-05T18:43:37.884Z,99301.19
2022-08-05T18:46:09.593Z,99313.97
2022-08-05T18:48:36.744Z,99314.66
2022-08-05T18:52:04.357Z,99324.78
2022-08-05T18:54:13.282Z,99325.63
2022-08-05T18:56:40.397Z,99323.47
2022-08-05T18:59:42.040Z,99318.59
2022-08-05T19:01:57.005Z,99330.56
2022-08-05T19:04:24.778Z,99336.25
2022-08-05T19:06:51.613Z,99347.66
2022-08-05T19:09:20.250Z,99348.34
2022-08-05T19:11:59.999Z,99360.13
2022-08-05T19:14:52.208Z,99361.47
2022-08-05T19:17:14.545Z,99372.88
2022-08-05T19:19:44.177Z,99369.53
2022-08-05T19:22:17.090Z,99379.78
2022-08-05T19:24:56.144Z,99376.78
2022-08-05T19:27:23.563Z,99395.72
2022-08-05T19:29:50.178Z,99388.00
2022-08-05T19:32:16.619Z,99385.66
2022-08-05T19:34:54.637Z,99393.38
2022-08-05T19:37:30.055Z,99397.72
2022-08-05T19:40:09.996Z,99399.06
2022-08-05T19:42:37.079Z,99401.44
2022-08-05T19:45:07.152Z,99394.69
2022-08-05T19:47:37.252Z,99393.34
2022-08-05T19:50:04.942Z,99403.06
2022-08-05T19:52:34.088Z,99416.81
2022-08-05T19:55:06.779Z,99418.13
2022-08-05T19:57:49.104Z,99430.34
2022-08-05T20:00:22.262Z,99426.13
2022-08-05T20:02:48.696Z,99439.19
2022-08-05T20:05:16.481Z,99444.19
2022-08-05T20:07:53.895Z,99441.13
2022-08-05T20:10:24.567Z,99440.94
2022-08-05T20:12:51.909Z,99440.13
2022-08-05T20:15:48.575Z,99435.06
2022-08-05T20:18:10.304Z,99434.03
2022-08-05T20:20:55.912Z,99440.19
2022-08-05T20:23:23.159Z,99447.03
2022-08-05T20:25:52.226Z,99452.19
2022-08-05T20:28:20.055Z,99460.56
2022-08-05T20:30:47.939Z,99460.34
2022-08-05T20:33:16.168Z,99459.81
2022-08-05T20:35:45.595Z,99468.66
2022-08-05T20:38:14.378Z,99465.28
2022-08-05T20:40:50.427Z,99467.59
2022-08-05T20:43:17.348Z,99468.03
2022-08-05T20:46:00.363Z,99464.81
2022-08-05T20:48:27.010Z,99477.84
2022-08-05T20:50:53.420Z,99469.44
2022-08-05T20:53:36.576Z,99472.56
2022-08-05T20:56:09.701Z,99485.72
2022-08-05T20:58:37.028Z,99484.06
2022-08-05T21:01:03.898Z,99490.72
2022-08-05T21:03:34.468Z,99489.63
2022-08-05T21:06:01.793Z,99492.78
2022-08-05T21:08:42.051Z,99503.13
2022-08-05T21:11:12.659Z,99510.63
2022-08-05T21:13:47.931Z,99514.56
2022-08-05T21:16:29.581Z,99524.75
2022-08-05T21:19:00.914Z,99519.03
2022-08-05T21:21:39.053Z,99515.78
2022-08-05T21:24:12.725Z,99509.06
2022-08-05T21:26:44.113Z,99509.66
2022-08-05T21:29:40.723Z,99512.78
2022-08-05T21:32:09.902Z,99503.22
2022-08-05T21:34:43.552Z,99505.22
2022-08-05T21:37:22.725Z,99500.19
2022-08-05T21:39:49.798Z,99512.31
2022-08-05T21:42:41.004Z,99523.28
2022-08-05T21:45:11.807Z,99518.25
2022-08-05T21:47:57.111Z,99528.41
2022-08-05T21:50:24.744Z,99531.22
2022-08-05T21:52:51.300Z,99528.72
2022-08-05T21:55:42.841Z,99519.97
2022-08-05T21:58:05.753Z,99519.00
2022-08-05T22:00:32.306Z,99518.00
2022-08-05T22:02:59.782Z,99531.38
2022-08-05T22:05:27.494Z,99545.59
2022-08-05T22:07:59.216Z,99550.78
2022-08-05T22:10:29.098Z,99549.78
2022-08-05T22:12:57.286Z,99548.09
2022-08-05T22:15:56.472Z,99558.13
2022-08-05T22:18:11.065Z,99559.25
2022-08-05T22:20:38.839Z,99564.59
2022-08-05T22:23:24.975Z,99563.72
2022-08-05T22:26:29.794Z,99571.03
2022-08-05T22:28:56.415Z,99574.84
2022-08-05T22:31:22.869Z,99573.16
2022-08-05T22:33:58.003Z,99574.59
2022-08-05T22:36:27.541Z,99569.53
2022-08-05T22:38:55.482Z,99578.97
2022-08-05T22:42:05.462Z,99577.16
2022-08-05T22:44:08.884Z,99575.91
2022-08-05T22:46:39.807Z,99583.38
2022-08-05T22:49:12.486Z,99575.63
2022-08-05T22:52:04.479Z,99583.13
2022-08-05T22:54:34.971Z,99583.25
2022-08-05T22:57:01.568Z,99578.19
2022-08-05T22:59:46.311Z,99588.47
2022-08-05T23:02:16.653Z,99587.91
2022-08-05T23:04:43.703Z,99582.16
2022-08-05T23:07:18.217Z,99591.31
2022-08-05T23:09:53.362Z,99593.56
2022-08-05T23:12:28.609Z,99592.16
2022-08-05T23:14:55.413Z,99602.28
2022-08-05T23:17:34.625Z,99610.56
2022-08-05T23:20:06.121Z,99611.13
2022-08-05T23:22:43.023Z,99611.56
2022-08-05T23:25:09.439Z,99627.03
2022-08-05T23:27:57.540Z,99617.75
2022-08-05T23:30:27.025Z,99619.97
2022-08-05T23:32:55.466Z,99629.00
2022-08-05T23:35:24.252Z,99632.66
2022-08-05T23:37:54.935Z,99643.59
2022-08-05T23:40:27.080Z,99638.53
2022-08-05T23:42:53.919Z,99649.47
2022-08-05T23:45:20.502Z,99642.75
2022-08-05T23:47:50.273Z,99650.03
2022-08-05T23:50:20.523Z,99652.25
2022-08-05T23:52:49.765Z,99664.19
2022-08-05T23:55:18.988Z,99658.25
2022-08-05T23:57:48.957Z,99660.38
